createdAt,value
2023-04-01T00:01:18.008Z,11.10
2023-04-01T00:03:46.576Z,11.10
2023-04-01T00:06:17.979Z,11.10
2023-04-01T00:08:47.246Z,11.10
2023-04-01T00:11:17.275Z,11.00
2023-04-01T00:13:46.237Z,11.10
2023-04-01T00:16:21.522Z,11.10
2023-04-01T00:18:53.277Z,11.10
2023-04-01T00:21:22.757Z,11.10
2023-04-01T00:23:52.247Z,11.10
2023-04-01T00:26:22.874Z,11.10
2023-04-01T00:28:51.865Z,11.10
2023-04-01T00:31:20.503Z,11.10
2023-04-01T00:33:48.964Z,11.00
2023-04-01T00:36:22.420Z,11.10
2023-04-01T00:38:51.456Z,11.10
2023-04-01T00:41:22.586Z,11.10
2023-04-01T00:43:53.636Z,11.00
2023-04-01T00:46:23.259Z,11.00
2023-04-01T00:48:56.245Z,10.90
2023-04-01T00:51:31.001Z,10.90
2023-04-01T00:54:02.607Z,10.90
2023-04-01T00:56:37.711Z,10.90
2023-04-01T00:59:13.562Z,10.90
2023-04-01T01:01:42.701Z,10.90
2023-04-01T01:04:27.868Z,10.90
2023-04-01T01:07:20.039Z,10.90
2023-04-01T01:10:03.490Z,10.90
2023-04-01T01:12:39.940Z,11.00
2023-04-01T01:15:21.329Z,10.90
2023-04-01T01:18:01.055Z,10.90
2023-04-01T01:21:06.514Z,10.90
2023-04-01T01:24:07.233Z,10.90
2023-04-01T01:26:53.720Z,10.90
2023-04-01T01:29:52.649Z,10.90
2023-04-01T01:32:40.878Z,10.90
2023-04-01T01:35:23.156Z,10.90
2023-04-01T01:37:57.981Z,10.90
2023-04-01T01:40:29.540Z,10.90
2023-04-01T01:43:02.551Z,10.90
2023-04-01T01:45:35.183Z,10.90
2023-04-01T01:48:07.028Z,10.90
2023-04-01T01:50:38.754Z,10.80
2023-04-01T01:53:09.388Z,10.70
2023-04-01T01:55:41.327Z,10.70
2023-04-01T01:58:21.040Z,10.80
2023-04-01T02:00:55.624Z,10.80
2023-04-01T02:03:28.153Z,10.80
2023-04-01T02:06:03.183Z,10.80
2023-04-01T02:08:38.936Z,10.90
2023-04-01T02:11:11.395Z,10.80
2023-04-01T02:13:49.859Z,10.90
2023-04-01T02:16:25.839Z,10.80
2023-04-01T02:18:59.981Z,10.90
2023-04-01T02:21:34.186Z,10.90
2023-04-01T02:24:06.588Z,10.90
2023-04-01T02:26:37.447Z,10.90
2023-04-01T02:29:09.505Z,10.90
2023-04-01T02:31:39.034Z,10.90
2023-04-01T02:34:07.403Z,10.90
2023-04-01T02:36:38.376Z,10.90
2023-04-01T02:39:08.646Z,10.90
2023-04-01T02:41:41.711Z,10.90
2023-04-01T02:44:11.384Z,10.90
2023-04-01T02:46:40.441Z,10.80
2023-04-01T02:49:08.966Z,10.80
2023-04-01T02:51:38.960Z,10.80
2023-04-01T02:54:07.441Z,10.80
2023-04-01T02:56:35.823Z,10.70
2023-04-01T02:59:04.242Z,10.80
2023-04-01T03:01:32.606Z,10.80
2023-04-01T03:04:00.927Z,10.80
2023-04-01T03:06:29.244Z,10.70
2023-04-01T03:08:58.961Z,10.70
2023-04-01T03:11:28.161Z,10.70
2023-04-01T03:13:56.400Z,10.70
2023-04-01T03:16:25.245Z,10.70
2023-04-01T03:18:54.241Z,10.70
2023-04-01T03:21:25.959Z,10.70
2023-04-01T03:23:54.558Z,10.80
2023-04-01T03:26:24.760Z,10.70
2023-04-01T03:28:52.967Z,10.70
2023-04-01T03:31:23.270Z,10.70
2023-04-01T03:33:55.743Z,10.70
2023-04-01T03:36:24.472Z,10.60
2023-04-01T03:38:52.734Z,10.60
2023-04-01T03:41:28.785Z,10.70
2023-04-01T03:43:57.109Z,10.60
2023-04-01T03:46:25.589Z,10.60
2023-04-01T03:48:53.848Z,10.60
2023-04-01T03:51:22.232Z,10.60
2023-04-01T03:53:51.476Z,10.60
2023-04-01T03:56:19.707Z,10.60
2023-04-01T03:58:49.286Z,10.60
2023-04-01T04:01:21.624Z,10.50
2023-04-01T04:03:53.285Z,10.50
2023-04-01T04:06:22.049Z,10.60
2023-04-01T04:08:50.917Z,10.60
2023-04-01T04:11:22.797Z,10.60
2023-04-01T04:13:56.019Z,10.60
2023-04-01T04:16:25.248Z,10.60
2023-04-01T04:19:00.764Z,10.60
2023-04-01T04:21:29.180Z,10.60
2023-04-01T04:23:57.666Z,10.50
2023-04-01T04:26:26.685Z,10.50
2023-04-01T04:29:04.376Z,10.50
2023-04-01T04:31:33.357Z,10.50
2023-04-01T04:34:02.722Z,10.50
2023-04-01T04:36:34.770Z,10.50
2023-04-01T04:39:04.183Z,10.50
2023-04-01T04:41:35.964Z,10.50
2023-04-01T04:44:07.332Z,10.50
2023-04-01T04:46:35.636Z,10.50
2023-04-01T04:49:13.392Z,10.50
2023-04-01T04:51:41.808Z,10.40
2023-04-01T04:54:10.742Z,10.50
2023-04-01T04:57:05.126Z,10.40
2023-04-01T04:59:39.941Z,10.40
2023-04-01T05:02:13.724Z,10.40
2023-04-01T05:04:42.053Z,10.40
2023-04-01T05:07:11.997Z,10.40
2023-04-01T05:09:41.080Z,10.40
2023-04-01T05:12:09.404Z,10.30
2023-04-01T05:15:06.415Z,10.40
2023-04-01T05:17:35.037Z,10.30
2023-04-01T05:20:05.820Z,10.30
2023-04-01T05:22:34.235Z,10.10
2023-04-01T05:25:02.605Z,9.90
2023-04-01T05:27:31.158Z,9.80
2023-04-01T05:30:00.109Z,9.50
2023-04-01T05:32:52.271Z,9.30
2023-04-01T05:35:21.572Z,9.10
2023-04-01T05:37:49.888Z,9.00
2023-04-01T05:40:19.105Z,8.90
2023-04-01T05:42:47.329Z,8.80
2023-04-01T05:45:17.322Z,8.70
2023-04-01T05:47:58.747Z,8.60
2023-04-01T05:50:27.062Z,8.50
2023-04-01T05:52:55.280Z,8.50
2023-04-01T05:55:24.806Z,8.50
2023-04-01T05:57:53.661Z,8.40
2023-04-01T06:00:22.615Z,8.30
2023-04-01T06:02:52.984Z,8.30
2023-04-01T06:05:26.198Z,8.30
2023-04-01T06:08:01.115Z,8.30
2023-04-01T06:10:54.433Z,8.30
2023-04-01T06:13:40.528Z,8.20
2023-04-01T06:16:20.570Z,8.10
2023-04-01T06:19:08.067Z,8.10
2023-04-01T06:22:03.469Z,8.00
2023-04-01T06:24:55.076Z,7.90
2023-04-01T06:27:47.567Z,7.90
2023-04-01T06:30:36.568Z,7.80
2023-04-01T06:33:23.177Z,7.70
2023-04-01T06:36:16.616Z,7.60
2023-04-01T06:39:11.278Z,7.60
2023-04-01T06:42:22.196Z,7.50
2023-04-01T06:45:12.914Z,7.50
2023-04-01T06:48:57.133Z,7.50
2023-04-01T06:51:56.418Z,7.40
2023-04-01T06:54:55.417Z,7.40
2023-04-01T06:57:47.707Z,7.40
2023-04-01T07:00:26.869Z,7.40
2023-04-01T07:03:07.241Z,7.40
2023-04-01T07:05:37.616Z,7.70
2023-04-01T07:08:12.296Z,7.80
2023-04-01T07:10:50.063Z,7.60
2023-04-01T07:13:43.457Z,7.40
2023-04-01T07:16:26.168Z,7.30
2023-04-01T07:19:01.721Z,7.20
2023-04-01T07:21:48.808Z,7.20
2023-04-01T07:24:28.925Z,7.10
2023-04-01T07:27:11.807Z,7.10
2023-04-01T07:29:41.628Z,7.10
2023-04-01T07:32:31.318Z,7.10
2023-04-01T07:35:17.309Z,7.10
2023-04-01T07:38:13.742Z,7.10
2023-04-01T07:40:54.998Z,7.10
2023-04-01T07:43:51.274Z,7.10
2023-04-01T07:46:52.906Z,7.20
2023-04-01T07:49:32.651Z,7.20
2023-04-01T07:52:08.351Z,7.10
2023-04-01T07:54:51.734Z,7.10
2023-04-01T07:57:26.394Z,7.10
2023-04-01T08:00:07.280Z,7.10
2023-04-01T08:03:19.711Z,7.10
2023-04-01T08:05:59.162Z,7.10
2023-04-01T08:08:44.870Z,7.10
2023-04-01T08:12:06.399Z,7.10
2023-04-01T08:15:23.327Z,7.10
2023-04-01T08:18:18.118Z,7.00
2023-04-01T08:20:52.961Z,6.90
2023-04-01T08:23:28.141Z,7.00
2023-04-01T08:26:04.663Z,7.00
2023-04-01T08:28:45.686Z,7.00
2023-04-01T08:31:25.290Z,6.90
2023-04-01T08:33:57.290Z,6.90
2023-04-01T08:36:33.392Z,6.90
2023-04-01T08:39:19.899Z,7.00
2023-04-01T08:42:32.197Z,7.00
2023-04-01T08:45:24.975Z,6.90
2023-04-01T08:48:52.946Z,6.80
2023-04-01T08:52:00.334Z,6.80
2023-04-01T08:55:19.380Z,6.90
2023-04-01T08:58:52.307Z,6.80
2023-04-01T09:02:17.686Z,6.90
2023-04-01T09:05:24.581Z,6.80
2023-04-01T09:08:05.795Z,6.90
2023-04-01T09:11:01.812Z,6.80
2023-04-01T09:14:25.285Z,6.90
2023-04-01T09:17:44.687Z,6.90
2023-04-01T09:20:49.826Z,6.90
2023-04-01T09:23:47.044Z,6.90
2023-04-01T09:26:37.529Z,6.90
2023-04-01T09:29:29.810Z,6.90
2023-04-01T09:32:32.191Z,6.90
2023-04-01T09:35:24.238Z,7.00
2023-04-01T09:38:13.840Z,7.00
2023-04-01T09:40:56.108Z,7.00
2023-04-01T09:44:03.959Z,7.10
2023-04-01T09:47:03.114Z,7.10
2023-04-01T09:49:59.112Z,7.20
2023-04-01T09:52:44.745Z,7.20
2023-04-01T09:56:21.046Z,7.10
2023-04-01T09:59:55.162Z,7.20
2023-04-01T10:03:35.289Z,7.20
2023-04-01T10:07:00.727Z,7.20
2023-04-01T10:10:24.061Z,7.20
2023-04-01T10:13:55.851Z,7.20
2023-04-01T10:17:13.269Z,7.20
2023-04-01T10:20:44.098Z,7.20
2023-04-01T10:23:47.676Z,7.20
2023-04-01T10:27:07.413Z,7.30
2023-04-01T10:31:10.876Z,7.30
2023-04-01T10:34:23.092Z,7.40
2023-04-01T10:36:56.926Z,7.30
2023-04-01T10:40:20.434Z,7.30
2023-04-01T10:43:42.265Z,7.20
2023-04-01T10:47:08.976Z,7.20
2023-04-01T10:50:17.628Z,7.20
2023-04-01T10:53:23.631Z,7.20
2023-04-01T10:56:49.303Z,7.20
2023-04-01T11:00:25.327Z,7.10
2023-04-01T11:04:13.357Z,7.10
2023-04-01T11:08:10.881Z,7.10
2023-04-01T11:11:29.932Z,7.10
2023-04-01T11:14:30.618Z,7.20
2023-04-01T11:17:49.296Z,7.30
2023-04-01T11:21:13.655Z,7.40
2023-04-01T11:24:23.789Z,7.40
2023-04-01T11:27:39.715Z,7.20
2023-04-01T11:30:31.239Z,7.10
2023-04-01T11:33:08.565Z,7.10
2023-04-01T11:35:58.554Z,7.10
2023-04-01T11:38:43.306Z,7.10
2023-04-01T11:41:41.583Z,7.10
2023-04-01T11:44:55.589Z,7.10
2023-04-01T11:48:24.797Z,7.10
2023-04-01T11:51:30.789Z,7.10
2023-04-01T11:54:13.626Z,6.90
2023-04-01T11:57:02.235Z,6.90
2023-04-01T12:00:01.364Z,6.90
2023-04-01T12:02:50.352Z,7.00
2023-04-01T12:05:44.507Z,7.00
2023-04-01T12:08:31.870Z,7.00
2023-04-01T12:11:11.227Z,6.90
2023-04-01T12:13:51.583Z,6.90
2023-04-01T12:16:38.698Z,6.80
2023-04-01T12:19:19.738Z,6.80
2023-04-01T12:22:09.705Z,6.80
2023-04-01T12:24:49.826Z,6.80
2023-04-01T12:27:46.042Z,6.70
2023-04-01T12:30:35.790Z,6.80
2023-04-01T12:33:47.177Z,6.80
2023-04-01T12:36:55.543Z,6.80
2023-04-01T12:40:03.239Z,6.70
2023-04-01T12:43:00.941Z,6.70
2023-04-01T12:45:34.383Z,6.50
2023-04-01T12:48:45.135Z,6.40
2023-04-01T12:51:50.953Z,6.40
2023-04-01T12:55:08.960Z,6.40
2023-04-01T12:58:19.447Z,6.40
2023-04-01T13:01:04.345Z,6.40
2023-04-01T13:04:09.625Z,6.40
2023-04-01T13:07:02.767Z,6.50
2023-04-01T13:09:51.977Z,6.50
2023-04-01T13:13:04.017Z,6.50
2023-04-01T13:15:42.942Z,6.50
2023-04-01T13:18:30.342Z,6.60
2023-04-01T13:21:10.186Z,6.60
2023-04-01T13:24:02.584Z,6.60
2023-04-01T13:26:38.879Z,6.60
2023-04-01T13:29:17.477Z,6.50
2023-04-01T13:32:04.440Z,6.40
2023-04-01T13:34:49.305Z,6.30
2023-04-01T13:37:39.356Z,6.30
2023-04-01T13:40:38.236Z,6.40
2023-04-01T13:43:16.252Z,6.40
2023-04-01T13:46:09.078Z,6.40
2023-04-01T13:49:26.989Z,6.40
2023-04-01T13:52:46.493Z,6.50
2023-04-01T13:55:37.632Z,6.50
2023-04-01T13:58:59.823Z,6.50
2023-04-01T14:01:40.587Z,6.50
2023-04-01T14:04:58.210Z,6.40
2023-04-01T14:07:52.024Z,6.40
2023-04-01T14:10:33.969Z,6.40
2023-04-01T14:13:11.770Z,6.40
2023-04-01T14:16:06.702Z,6.40
2023-04-01T14:19:00.338Z,6.40
2023-04-01T14:21:37.187Z,6.30
2023-04-01T14:24:34.416Z,6.30
2023-04-01T14:27:38.065Z,6.30
2023-04-01T14:30:39.652Z,6.30
2023-04-01T14:33:30.908Z,6.30
2023-04-01T14:36:31.108Z,6.30
2023-04-01T14:39:17.265Z,6.30
2023-04-01T14:41:55.761Z,6.30
2023-04-01T14:45:07.203Z,6.20
2023-04-01T14:47:54.813Z,6.20
2023-04-01T14:50:27.273Z,6.30
2023-04-01T14:53:13.370Z,6.30
2023-04-01T14:55:52.937Z,6.20
2023-04-01T14:58:26.205Z,6.20
2023-04-01T15:01:26.197Z,6.10
2023-04-01T15:04:08.926Z,6.00
2023-04-01T15:07:07.104Z,6.00
2023-04-01T15:09:50.324Z,6.00
2023-04-01T15:12:31.534Z,6.10
2023-04-01T15:15:30.009Z,6.00
2023-04-01T15:18:11.149Z,5.90
2023-04-01T15:20:56.120Z,5.90
2023-04-01T15:23:40.817Z,5.90
2023-04-01T15:27:01.410Z,6.00
2023-04-01T15:30:05.880Z,5.90
2023-04-01T15:32:52.426Z,5.90
2023-04-01T15:35:36.348Z,5.80
2023-04-01T15:38:16.334Z,5.80
2023-04-01T15:40:52.372Z,5.70
2023-04-01T15:43:42.130Z,5.80
2023-04-01T15:46:49.653Z,5.70
2023-04-01T15:49:38.463Z,5.70
2023-04-01T15:52:22.485Z,5.70
2023-04-01T15:55:21.669Z,5.80
2023-04-01T15:58:18.391Z,5.80
2023-04-01T16:00:59.292Z,5.70
2023-04-01T16:03:41.941Z,5.60
2023-04-01T16:06:35.055Z,5.70
2023-04-01T16:09:27.010Z,5.60
2023-04-01T16:12:09.149Z,5.50
2023-04-01T16:14:56.849Z,5.50
2023-04-01T16:17:49.158Z,5.60
2023-04-01T16:20:24.386Z,5.50
2023-04-01T16:23:01.203Z,5.50
2023-04-01T16:25:41.052Z,5.40
2023-04-01T16:28:25.450Z,5.40
2023-04-01T16:31:05.991Z,5.40
2023-04-01T16:33:45.429Z,5.40
2023-04-01T16:36:28.163Z,5.40
2023-04-01T16:39:28.312Z,5.40
2023-04-01T16:42:19.232Z,5.40
2023-04-01T16:44:57.869Z,5.40
2023-04-01T16:47:34.756Z,5.40
2023-04-01T16:50:17.353Z,5.30
2023-04-01T16:53:01.876Z,5.30
2023-04-01T16:55:51.433Z,5.20
2023-04-01T16:58:28.370Z,5.10
2023-04-01T17:01:06.695Z,5.10
2023-04-01T17:03:42.599Z,5.00
2023-04-01T17:06:31.943Z,5.00
2023-04-01T17:09:31.918Z,5.00
2023-04-01T17:12:13.756Z,5.00
2023-04-01T17:14:54.257Z,5.00
2023-04-01T17:17:37.329Z,5.00
2023-04-01T17:20:29.222Z,5.00
2023-04-01T17:23:03.582Z,4.90
2023-04-01T17:25:53.518Z,4.90
2023-04-01T17:28:39.367Z,4.90
2023-04-01T17:31:21.031Z,5.00
2023-04-01T17:34:20.089Z,4.90
2023-04-01T17:37:10.391Z,4.90
2023-04-01T17:39:58.085Z,5.10
2023-04-01T17:42:42.840Z,5.10
2023-04-01T17:45:23.438Z,5.00
2023-04-01T17:48:17.087Z,5.00
2023-04-01T17:51:08.150Z,5.00
2023-04-01T17:53:48.652Z,5.00
2023-04-01T17:56:34.851Z,4.90
2023-04-01T17:59:13.695Z,5.00
2023-04-01T18:01:57.946Z,5.00
2023-04-01T18:04:49.563Z,5.00
2023-04-01T18:07:49.511Z,5.00
2023-04-01T18:10:30.324Z,5.00
2023-04-01T18:13:46.303Z,5.10
2023-04-01T18:16:31.569Z,5.00
2023-04-01T18:19:13.791Z,5.00
2023-04-01T18:21:49.593Z,5.00
2023-04-01T18:24:27.001Z,5.00
2023-04-01T18:27:05.827Z,5.00
2023-04-01T18:29:46.349Z,5.00
2023-04-01T18:32:30.284Z,5.00
2023-04-01T18:35:19.610Z,5.00
2023-04-01T18:37:56.534Z,5.00
2023-04-01T18:40:34.282Z,4.90
2023-04-01T18:43:18.279Z,4.90
2023-04-01T18:45:59.150Z,4.90
2023-04-01T18:48:50.333Z,4.90
2023-04-01T18:51:25.912Z,4.80
2023-04-01T18:54:00.481Z,4.80
2023-04-01T18:56:35.015Z,4.70
2023-04-01T18:59:12.687Z,4.70
2023-04-01T19:01:54.355Z,4.60
2023-04-01T19:04:32.830Z,4.50
2023-04-01T19:07:04.083Z,4.50
2023-04-01T19:09:45.084Z,4.50
2023-04-01T19:12:39.779Z,4.40
2023-04-01T19:15:31.712Z,4.40
2023-04-01T19:18:40.471Z,4.30
2023-04-01T19:21:18.282Z,4.30
2023-04-01T19:24:26.512Z,4.30
2023-04-01T19:27:05.264Z,4.20
2023-04-01T19:29:58.471Z,4.30
2023-04-01T19:32:45.881Z,4.20
2023-04-01T19:35:37.478Z,4.30
2023-04-01T19:38:16.621Z,4.30
2023-04-01T19:40:55.859Z,4.30
2023-04-01T19:43:46.767Z,4.40
2023-04-01T19:46:27.743Z,4.30
2023-04-01T19:49:18.001Z,4.30
2023-04-01T19:51:55.806Z,4.20
2023-04-01T19:54:40.774Z,4.20
2023-04-01T19:57:25.563Z,4.10
2023-04-01T20:00:04.260Z,4.10
2023-04-01T20:03:05.561Z,4.00
2023-04-01T20:05:48.456Z,4.00
2023-04-01T20:08:34.091Z,3.90
2023-04-01T20:11:17.698Z,3.90
2023-04-01T20:14:03.557Z,3.90
2023-04-01T20:17:09.037Z,3.90
2023-04-01T20:19:42.513Z,3.80
2023-04-01T20:22:40.493Z,3.90
2023-04-01T20:25:19.277Z,3.70
2023-04-01T20:27:55.090Z,3.80
2023-04-01T20:31:09.660Z,3.70
2023-04-01T20:34:35.058Z,3.70
2023-04-01T20:37:30.294Z,3.80
2023-04-01T20:40:32.318Z,3.80
2023-04-01T20:43:43.397Z,3.70
2023-04-01T20:46:22.004Z,3.60
2023-04-01T20:49:35.937Z,3.60
2023-04-01T20:52:23.895Z,3.50
2023-04-01T20:55:20.436Z,3.50
2023-04-01T20:58:09.196Z,3.50
2023-04-01T21:00:53.994Z,3.30
2023-04-01T21:03:40.395Z,3.30
2023-04-01T21:06:37.510Z,3.30
2023-04-01T21:09:36.697Z,3.30
2023-04-01T21:12:23.998Z,3.30
2023-04-01T21:15:17.129Z,3.20
2023-04-01T21:18:05.715Z,3.20
2023-04-01T21:21:09.620Z,3.10
2023-04-01T21:24:01.496Z,3.20
2023-04-01T21:26:48.260Z,3.10
2023-04-01T21:29:44.891Z,3.10
2023-04-01T21:32:57.820Z,3.00
2023-04-01T21:35:40.967Z,2.90
2023-04-01T21:38:30.686Z,2.90
2023-04-01T21:41:44.862Z,3.00
2023-04-01T21:44:58.926Z,2.90
2023-04-01T21:48:27.336Z,2.90
2023-04-01T21:51:41.335Z,2.90
2023-04-01T21:54:51.629Z,2.90
2023-04-01T21:58:10.854Z,2.80
2023-04-01T22:00:44.044Z,2.90
2023-04-01T22:04:23.981Z,2.70
2023-04-01T22:06:58.821Z,2.70
2023-04-01T22:09:33.408Z,2.70
2023-04-01T22:12:10.172Z,2.70
2023-04-01T22:14:51.980Z,2.70
2023-04-01T22:17:30.348Z,2.70
2023-04-01T22:20:20.418Z,2.70
2023-04-01T22:23:08.357Z,2.60
2023-04-01T22:25:47.063Z,2.60
2023-04-01T22:28:23.925Z,2.70
2023-04-01T22:30:57.507Z,2.70
2023-04-01T22:33:38.269Z,2.60
2023-04-01T22:36:22.540Z,2.60
2023-04-01T22:39:11.103Z,2.60
2023-04-01T22:42:02.915Z,2.60
2023-04-01T22:44:51.853Z,2.60
2023-04-01T22:47:30.580Z,2.50
2023-04-01T22:50:11.980Z,2.50
2023-04-01T22:52:45.212Z,2.50
2023-04-01T22:55:19.326Z,2.50
2023-04-01T22:57:54.318Z,2.50
2023-04-01T23:00:30.462Z,2.50
2023-04-01T23:03:13.618Z,2.40
2023-04-01T23:05:51.105Z,2.30
2023-04-01T23:09:01.349Z,2.40
2023-04-01T23:11:35.993Z,2.30
2023-04-01T23:14:47.350Z,2.30
2023-04-01T23:17:53.604Z,2.30
2023-04-01T23:20:40.604Z,2.40
2023-04-01T23:23:26.052Z,2.30
2023-04-01T23:26:09.176Z,2.30
2023-04-01T23:28:49.870Z,2.30
2023-04-01T23:31:38.028Z,2.40
2023-04-01T23:34:32.049Z,2.30
2023-04-01T23:37:06.179Z,2.30
2023-04-01T23:39:37.950Z,2.20
2023-04-01T23:42:16.069Z,2.40
2023-04-01T23:44:45.901Z,2.40
2023-04-01T23:47:22.373Z,2.30
2023-04-01T23:49:55.524Z,2.30
2023-04-01T23:52:27.250Z,2.30
2023-04-01T23:55:00.729Z,2.30
2023-04-01T23:57:33.953Z,2.30
